Terminal Aerodrome Forecast
Issued by NWS

Home | Current Version | Previous Version | Text Only | Print | Product List | Glossary On
Versions: 1 2 3 4 5 6 7 8 9 10 11 12 13 14 15 16 17 18 19 20 21 22 23 24 25 26 27 28 29 30 31 32 33 34 35 36 37 38 39
000
FTUS46 KEKA 290946 AAA
TAFACV
TAF AMD
KACV 290946Z 2910/3006 33009KT 2SM -DZ BR OVC002
     FM291200 VRB03KT 2SM BR OVC003
     FM291700 31005KT 6SM BR OVC008
     FM292000 31008KT P6SM OVC015
     FM300400 VRB05KT 5SM BR OVC007=

USA.gov is the U.S. government's official web portal to all federal, state and local government web resources and services.